CWI845 HBBA-HKEL
Flight info
| Callsign | CWI845 |
|---|---|
| Flight time | 0h 59m |
| Altitude | 35000 |
| Route | BJA UM306 GETAB DCT ITBOS DCT GERIX GERIX2B |
| Aircraft | A320/M-SDE3FGHIRWY/LB1 |
Departure
| Time | 2026-04-25 05:36 |
|---|---|
| Airport | Bujumbura Melchior Ndadaye International Airport (HBBA) |
Arrival
| Time | 2026-04-25 06:35 |
|---|---|
| Airport | Eldoret International Airport (HKEL) |
| Time | Latitude | Longitude | Altitude | Speed | Heading |
|---|---|---|---|---|---|
| 2026-04-25 05:30 | -3.31962 | 29.32005 | 2579 ft | 0 kts | 88° |
| 2026-04-25 05:33 | -3.31920 | 29.32019 | 2581 ft | 15 kts | 348° |
| 2026-04-25 05:33 | -3.31869 | 29.31883 | 2579 ft | 32 kts | 271° |
| 2026-04-25 05:34 | -3.31735 | 29.31753 | 2581 ft | 33 kts | 353° |
| 2026-04-25 05:34 | -3.31501 | 29.31711 | 2578 ft | 35 kts | 349° |
| 2026-04-25 05:34 | -3.31249 | 29.31672 | 2581 ft | 38 kts | 352° |
| 2026-04-25 05:34 | -3.30981 | 29.31643 | 2589 ft | 28 kts | 358° |
| 2026-04-25 05:35 | -3.30944 | 29.31601 | 2586 ft | 2 kts | 220° |
| 2026-04-25 05:35 | -3.31033 | 29.31614 | 2586 ft | 43 kts | 168° |
| 2026-04-25 05:35 | -3.31614 | 29.31731 | 2583 ft | 124 kts | 171° |
| 2026-04-25 05:35 | -3.32676 | 29.31888 | 2577 ft | 182 kts | 172° |
| 2026-04-25 05:36 | -3.33998 | 29.32072 | 3051 ft | 202 kts | 167° |
| 2026-04-25 05:36 | -3.35237 | 29.32821 | 3542 ft | 223 kts | 125° |
| 2026-04-25 05:36 | -3.35730 | 29.34351 | 4132 ft | 247 kts | 85° |
| 2026-04-25 05:36 | -3.35128 | 29.36007 | 4746 ft | 267 kts | 50° |
| 2026-04-25 05:37 | -3.33849 | 29.37313 | 5944 ft | 260 kts | 49° |
| 2026-04-25 05:37 | -3.32970 | 29.38849 | 7201 ft | 257 kts | 72° |
| 2026-04-25 05:37 | -3.32454 | 29.40647 | 7846 ft | 278 kts | 77° |
| 2026-04-25 05:37 | -3.31990 | 29.42525 | 8905 ft | 277 kts | 78° |
| 2026-04-25 05:38 | -3.31550 | 29.44385 | 10079 ft | 273 kts | 78° |
| 2026-04-25 05:38 | -3.31117 | 29.46216 | 11179 ft | 268 kts | 77° |
| 2026-04-25 05:38 | -3.30684 | 29.48031 | 12041 ft | 276 kts | 76° |
| 2026-04-25 05:38 | -3.30217 | 29.49955 | 12439 ft | 300 kts | 76° |
| 2026-04-25 05:39 | -3.29692 | 29.52096 | 12824 ft | 325 kts | 75° |
| 2026-04-25 05:39 | -3.29127 | 29.54377 | 13126 ft | 349 kts | 75° |
| 2026-04-25 05:39 | -3.28521 | 29.56816 | 13366 ft | 373 kts | 75° |
| 2026-04-25 05:39 | -3.27887 | 29.59368 | 13731 ft | 391 kts | 75° |
| 2026-04-25 05:40 | -3.27225 | 29.62034 | 14377 ft | 398 kts | 75° |
| 2026-04-25 05:40 | -3.26551 | 29.64746 | 15095 ft | 404 kts | 75° |
| 2026-04-25 05:40 | -3.25868 | 29.67490 | 15827 ft | 409 kts | 75° |
| 2026-04-25 05:40 | -3.25178 | 29.70268 | 16526 ft | 414 kts | 75° |
| 2026-04-25 05:41 | -3.24478 | 29.73080 | 17251 ft | 419 kts | 75° |
| 2026-04-25 05:41 | -3.23769 | 29.75924 | 17946 ft | 424 kts | 75° |
| 2026-04-25 05:41 | -3.23049 | 29.78804 | 18610 ft | 429 kts | 75° |
| 2026-04-25 05:41 | -3.22322 | 29.81714 | 19238 ft | 433 kts | 75° |
| 2026-04-25 05:42 | -3.21595 | 29.84647 | 19869 ft | 437 kts | 75° |
| 2026-04-25 05:42 | -3.20862 | 29.87611 | 20525 ft | 441 kts | 75° |
| 2026-04-25 05:42 | -3.20121 | 29.90602 | 21195 ft | 445 kts | 75° |
| 2026-04-25 05:42 | -3.19372 | 29.93616 | 21882 ft | 448 kts | 75° |
| 2026-04-25 05:43 | -3.18616 | 29.96655 | 22573 ft | 452 kts | 75° |
| 2026-04-25 05:43 | -3.17854 | 29.99723 | 23239 ft | 456 kts | 75° |
| 2026-04-25 05:43 | -3.17084 | 30.02814 | 23875 ft | 458 kts | 75° |
| 2026-04-25 05:43 | -3.16315 | 30.05900 | 24601 ft | 456 kts | 75° |
| 2026-04-25 05:44 | -3.15550 | 30.08974 | 25220 ft | 455 kts | 75° |
| 2026-04-25 05:44 | -3.14783 | 30.12047 | 25762 ft | 455 kts | 75° |
| 2026-04-25 05:44 | -3.14273 | 30.14083 | 26082 ft | 455 kts | 75° |
| 2026-04-25 05:44 | -3.13505 | 30.17152 | 26550 ft | 455 kts | 75° |
| 2026-04-25 05:45 | -3.12738 | 30.20223 | 26980 ft | 455 kts | 75° |
| 2026-04-25 05:45 | -3.11974 | 30.23296 | 27388 ft | 455 kts | 76° |
| 2026-04-25 05:45 | -3.10965 | 30.27360 | 27883 ft | 455 kts | 76° |
| 2026-04-25 05:45 | -3.10203 | 30.30431 | 28233 ft | 455 kts | 76° |
| 2026-04-25 05:46 | -3.09441 | 30.33501 | 28582 ft | 454 kts | 76° |
| 2026-04-25 05:46 | -3.08926 | 30.35574 | 28823 ft | 454 kts | 76° |
| 2026-04-25 05:46 | -3.08163 | 30.38637 | 29183 ft | 454 kts | 76° |
| 2026-04-25 05:46 | -3.07399 | 30.41702 | 29533 ft | 454 kts | 76° |
| 2026-04-25 05:47 | -3.06631 | 30.44771 | 29880 ft | 454 kts | 76° |
| 2026-04-25 05:47 | -3.05866 | 30.47835 | 30229 ft | 454 kts | 76° |
| 2026-04-25 05:47 | -3.05102 | 30.50901 | 30548 ft | 454 kts | 76° |
| 2026-04-25 05:47 | -3.04342 | 30.53960 | 30874 ft | 453 kts | 76° |
| 2026-04-25 05:48 | -3.03593 | 30.56976 | 31208 ft | 452 kts | 76° |
| 2026-04-25 05:48 | -3.02832 | 30.60029 | 31541 ft | 452 kts | 76° |
| 2026-04-25 05:48 | -3.02071 | 30.63072 | 31895 ft | 451 kts | 76° |
| 2026-04-25 05:48 | -3.01308 | 30.66111 | 32238 ft | 450 kts | 76° |
| 2026-04-25 05:49 | -3.00548 | 30.69145 | 32601 ft | 449 kts | 76° |
| 2026-04-25 05:49 | -2.99791 | 30.72174 | 32946 ft | 449 kts | 76° |
| 2026-04-25 05:49 | -2.99033 | 30.75202 | 33307 ft | 448 kts | 76° |
| 2026-04-25 05:49 | -2.98166 | 30.78189 | 33645 ft | 448 kts | 69° |
| 2026-04-25 05:50 | -2.96844 | 30.81005 | 33982 ft | 448 kts | 60° |
| 2026-04-25 05:50 | -2.95134 | 30.83607 | 34261 ft | 448 kts | 56° |
| 2026-04-25 05:50 | -2.93377 | 30.86180 | 34526 ft | 448 kts | 56° |
| 2026-04-25 05:50 | -2.91615 | 30.88761 | 34790 ft | 448 kts | 56° |
| 2026-04-25 05:51 | -2.89858 | 30.91339 | 35006 ft | 450 kts | 56° |
| 2026-04-25 05:51 | -2.86302 | 30.96575 | 35060 ft | 461 kts | 56° |
| 2026-04-25 05:52 | -2.82642 | 31.01960 | 35061 ft | 475 kts | 56° |
| 2026-04-25 05:52 | -2.78887 | 31.07485 | 35059 ft | 482 kts | 56° |
| 2026-04-25 05:53 | -2.75116 | 31.13036 | 35062 ft | 482 kts | 56° |
| 2026-04-25 05:53 | -2.71354 | 31.18585 | 35057 ft | 483 kts | 56° |
| 2026-04-25 05:54 | -2.67569 | 31.24148 | 35055 ft | 484 kts | 56° |
| 2026-04-25 05:54 | -2.61889 | 31.32488 | 35051 ft | 484 kts | 56° |
| 2026-04-25 05:55 | -2.58133 | 31.38015 | 35053 ft | 484 kts | 56° |
| 2026-04-25 05:55 | -2.54350 | 31.43579 | 35056 ft | 484 kts | 56° |
| 2026-04-25 05:56 | -2.50559 | 31.49149 | 35056 ft | 484 kts | 57° |
| 2026-04-25 05:56 | -2.46773 | 31.54711 | 35047 ft | 484 kts | 56° |
| 2026-04-25 05:57 | -2.42978 | 31.60270 | 35049 ft | 484 kts | 56° |
| 2026-04-25 05:57 | -2.39187 | 31.65832 | 35047 ft | 484 kts | 56° |
| 2026-04-25 05:58 | -2.35404 | 31.71402 | 35048 ft | 484 kts | 56° |
| 2026-04-25 05:58 | -2.31618 | 31.76969 | 35038 ft | 484 kts | 56° |
| 2026-04-25 05:59 | -2.27850 | 31.82498 | 35039 ft | 484 kts | 56° |
| 2026-04-25 05:59 | -2.24068 | 31.88058 | 35045 ft | 483 kts | 56° |
| 2026-04-25 06:00 | -2.20289 | 31.93609 | 35041 ft | 482 kts | 56° |
| 2026-04-25 06:00 | -2.16510 | 31.99153 | 35038 ft | 482 kts | 56° |
| 2026-04-25 06:01 | -2.12739 | 32.04686 | 35038 ft | 482 kts | 56° |
| 2026-04-25 06:01 | -2.08971 | 32.10225 | 35034 ft | 481 kts | 56° |
| 2026-04-25 06:02 | -2.05211 | 32.15753 | 35028 ft | 481 kts | 56° |
| 2026-04-25 06:02 | -2.01446 | 32.21279 | 35028 ft | 480 kts | 56° |
| 2026-04-25 06:03 | -1.97680 | 32.26798 | 35023 ft | 480 kts | 56° |
| 2026-04-25 06:03 | -1.93947 | 32.32276 | 35025 ft | 480 kts | 56° |
| 2026-04-25 06:04 | -1.90186 | 32.37792 | 35025 ft | 479 kts | 55° |
| 2026-04-25 06:04 | -1.86436 | 32.43296 | 35024 ft | 479 kts | 55° |
| 2026-04-25 06:05 | -1.82689 | 32.48796 | 35026 ft | 479 kts | 55° |
| 2026-04-25 06:05 | -1.78931 | 32.54301 | 35017 ft | 478 kts | 55° |
| 2026-04-25 06:06 | -1.75186 | 32.59799 | 35017 ft | 478 kts | 56° |
| 2026-04-25 06:06 | -1.71690 | 32.65445 | 35019 ft | 478 kts | 64° |
| 2026-04-25 06:07 | -1.68823 | 32.71442 | 35016 ft | 478 kts | 64° |
| 2026-04-25 06:07 | -1.65954 | 32.77436 | 35014 ft | 478 kts | 64° |
| 2026-04-25 06:08 | -1.63078 | 32.83432 | 35015 ft | 478 kts | 64° |
| 2026-04-25 06:08 | -1.60207 | 32.89423 | 35013 ft | 478 kts | 64° |
| 2026-04-25 06:09 | -1.57346 | 32.95387 | 35006 ft | 479 kts | 64° |
| 2026-04-25 06:09 | -1.54470 | 33.01393 | 35007 ft | 479 kts | 64° |
| 2026-04-25 06:10 | -1.51587 | 33.07404 | 35011 ft | 480 kts | 64° |
| 2026-04-25 06:10 | -1.48700 | 33.13416 | 35015 ft | 480 kts | 64° |
| 2026-04-25 06:11 | -1.45810 | 33.19440 | 35016 ft | 480 kts | 64° |
| 2026-04-25 06:11 | -1.42914 | 33.25467 | 35014 ft | 481 kts | 64° |
| 2026-04-25 06:12 | -1.40022 | 33.31494 | 35018 ft | 481 kts | 64° |
| 2026-04-25 06:12 | -1.37126 | 33.37521 | 35022 ft | 481 kts | 64° |
| 2026-04-25 06:13 | -1.34226 | 33.43550 | 35025 ft | 481 kts | 64° |
| 2026-04-25 06:14 | -1.29885 | 33.52601 | 35026 ft | 481 kts | 64° |
| 2026-04-25 06:14 | -1.26998 | 33.58637 | 35028 ft | 481 kts | 64° |
| 2026-04-25 06:14 | -1.25341 | 33.61533 | 35029 ft | 480 kts | 52° |
| 2026-04-25 06:15 | -1.23097 | 33.63989 | 35027 ft | 479 kts | 44° |
| 2026-04-25 06:15 | -1.18304 | 33.68619 | 35031 ft | 479 kts | 44° |
| 2026-04-25 06:16 | -1.13516 | 33.73206 | 35024 ft | 480 kts | 43° |
| 2026-04-25 06:16 | -1.08699 | 33.77834 | 35024 ft | 480 kts | 43° |
| 2026-04-25 06:17 | -1.03876 | 33.82471 | 35029 ft | 481 kts | 43° |
| 2026-04-25 06:17 | -0.99064 | 33.87106 | 35030 ft | 481 kts | 43° |
| 2026-04-25 06:18 | -0.94256 | 33.91748 | 35041 ft | 481 kts | 44° |
| 2026-04-25 06:18 | -0.89447 | 33.96382 | 35051 ft | 480 kts | 43° |
| 2026-04-25 06:19 | -0.84641 | 34.01003 | 35054 ft | 479 kts | 43° |
| 2026-04-25 06:19 | -0.79844 | 34.05617 | 35053 ft | 479 kts | 43° |
| 2026-04-25 06:20 | -0.75052 | 34.10229 | 35049 ft | 478 kts | 43° |
| 2026-04-25 06:20 | -0.70253 | 34.14850 | 35055 ft | 478 kts | 43° |
| 2026-04-25 06:21 | -0.65466 | 34.19467 | 35052 ft | 478 kts | 43° |
| 2026-04-25 06:21 | -0.60678 | 34.24075 | 35049 ft | 478 kts | 43° |
| 2026-04-25 06:22 | -0.55890 | 34.28678 | 35055 ft | 478 kts | 43° |
| 2026-04-25 06:22 | -0.51091 | 34.33291 | 35065 ft | 478 kts | 43° |
| 2026-04-25 06:23 | -0.46329 | 34.37869 | 35065 ft | 478 kts | 43° |
| 2026-04-25 06:23 | -0.43950 | 34.40159 | 34875 ft | 472 kts | 43° |
| 2026-04-25 06:23 | -0.41604 | 34.42422 | 34433 ft | 467 kts | 43° |
| 2026-04-25 06:23 | -0.39271 | 34.44676 | 33821 ft | 466 kts | 43° |
| 2026-04-25 06:24 | -0.36940 | 34.46925 | 33086 ft | 466 kts | 43° |
| 2026-04-25 06:24 | -0.34599 | 34.49176 | 32297 ft | 468 kts | 44° |
| 2026-04-25 06:24 | -0.32244 | 34.51436 | 31456 ft | 471 kts | 44° |
| 2026-04-25 06:24 | -0.29874 | 34.53712 | 30619 ft | 474 kts | 44° |
| 2026-04-25 06:25 | -0.27490 | 34.56007 | 29667 ft | 478 kts | 44° |
| 2026-04-25 06:25 | -0.25083 | 34.58326 | 28673 ft | 482 kts | 44° |
| 2026-04-25 06:25 | -0.22670 | 34.60649 | 27862 ft | 483 kts | 44° |
| 2026-04-25 06:25 | -0.20254 | 34.62975 | 27064 ft | 481 kts | 44° |
| 2026-04-25 06:26 | -0.17817 | 34.65279 | 26074 ft | 483 kts | 43° |
| 2026-04-25 06:26 | -0.15293 | 34.67500 | 25079 ft | 484 kts | 40° |
| 2026-04-25 06:26 | -0.12687 | 34.69651 | 24174 ft | 485 kts | 39° |
| 2026-04-25 06:26 | -0.10068 | 34.71736 | 23480 ft | 478 kts | 39° |
| 2026-04-25 06:27 | -0.07480 | 34.73781 | 22653 ft | 471 kts | 39° |
| 2026-04-25 06:27 | -0.04938 | 34.75809 | 21833 ft | 465 kts | 39° |
| 2026-04-25 06:27 | -0.02443 | 34.77833 | 21046 ft | 459 kts | 40° |
| 2026-04-25 06:27 | 0.00000 | 34.79844 | 20289 ft | 453 kts | 40° |
| 2026-04-25 06:28 | 0.02413 | 34.81850 | 19476 ft | 449 kts | 40° |
| 2026-04-25 06:28 | 0.04801 | 34.83841 | 18744 ft | 444 kts | 40° |
| 2026-04-25 06:28 | 0.07163 | 34.85808 | 17964 ft | 439 kts | 40° |
| 2026-04-25 06:28 | 0.09500 | 34.87747 | 17203 ft | 434 kts | 40° |
| 2026-04-25 06:29 | 0.11815 | 34.89661 | 16413 ft | 429 kts | 40° |
| 2026-04-25 06:29 | 0.14076 | 34.91526 | 16193 ft | 413 kts | 40° |
| 2026-04-25 06:29 | 0.16245 | 34.93315 | 16069 ft | 395 kts | 40° |
| 2026-04-25 06:29 | 0.18296 | 34.95010 | 15720 ft | 385 kts | 40° |
| 2026-04-25 06:30 | 0.20375 | 34.96728 | 14832 ft | 384 kts | 40° |
| 2026-04-25 06:30 | 0.22353 | 34.98363 | 14669 ft | 356 kts | 39° |
| 2026-04-25 06:30 | 0.24235 | 34.99917 | 13992 ft | 347 kts | 40° |
| 2026-04-25 06:30 | 0.26199 | 35.01265 | 13218 ft | 341 kts | 26° |
| 2026-04-25 06:31 | 0.28441 | 35.01979 | 12436 ft | 337 kts | 9° |
| 2026-04-25 06:31 | 0.30731 | 35.02376 | 11675 ft | 332 kts | 15° |
| 2026-04-25 06:31 | 0.32851 | 35.03213 | 10925 ft | 327 kts | 29° |
| 2026-04-25 06:31 | 0.34691 | 35.04527 | 10293 ft | 321 kts | 43° |
| 2026-04-25 06:32 | 0.36112 | 35.06184 | 9958 ft | 307 kts | 56° |
| 2026-04-25 06:32 | 0.37094 | 35.08028 | 9600 ft | 296 kts | 68° |
| 2026-04-25 06:32 | 0.37643 | 35.09948 | 9248 ft | 277 kts | 77° |
| 2026-04-25 06:32 | 0.38003 | 35.11756 | 8933 ft | 252 kts | 77° |
| 2026-04-25 06:33 | 0.38327 | 35.13361 | 8635 ft | 220 kts | 77° |
| 2026-04-25 06:33 | 0.38609 | 35.14766 | 8374 ft | 193 kts | 76° |
| 2026-04-25 06:33 | 0.38862 | 35.16021 | 8156 ft | 175 kts | 77° |
| 2026-04-25 06:33 | 0.39093 | 35.17170 | 7925 ft | 164 kts | 77° |
| 2026-04-25 06:34 | 0.39316 | 35.18273 | 7710 ft | 160 kts | 77° |
| 2026-04-25 06:34 | 0.39534 | 35.19357 | 7496 ft | 159 kts | 77° |
| 2026-04-25 06:34 | 0.39752 | 35.20438 | 7267 ft | 159 kts | 77° |
| 2026-04-25 06:34 | 0.39969 | 35.21518 | 7023 ft | 159 kts | 78° |
| 2026-04-25 06:35 | 0.40183 | 35.22583 | 6855 ft | 154 kts | 78° |
| 2026-04-25 06:35 | 0.40337 | 35.23350 | 6880 ft | 69 kts | 78° |
| 2026-04-25 06:35 | 0.40423 | 35.23779 | 6893 ft | 65 kts | 78° |
| 2026-04-25 06:35 | 0.40499 | 35.24074 | 6903 ft | 26 kts | 36° |
| 2026-04-25 06:36 | 0.40590 | 35.23996 | 6900 ft | 27 kts | 269° |
| 2026-04-25 06:36 | 0.40606 | 35.23878 | 6896 ft | 0 kts | 160° |